sensor_id;sensor_type;location;lat;lon;timestamp;pressure;altitude;pressure_sealevel;temperature
80680;BMP280;70043;51.982;-8.514;2024-03-08T00:00:06;98750.81;;;8.47
80680;BMP280;70043;51.982;-8.514;2024-03-08T00:02:38;98756.88;;;8.46
80680;BMP280;70043;51.982;-8.514;2024-03-08T00:05:06;98746.09;;;8.44
80680;BMP280;70043;51.982;-8.514;2024-03-08T00:07:34;98744.16;;;8.46
80680;BMP280;70043;51.982;-8.514;2024-03-08T00:10:02;98733.59;;;8.43
80680;BMP280;70043;51.982;-8.514;2024-03-08T00:12:30;98726.41;;;8.40
80680;BMP280;70043;51.982;-8.514;2024-03-08T00:14:57;98734.78;;;8.40
80680;BMP280;70043;51.982;-8.514;2024-03-08T00:17:24;98734.38;;;8.43
80680;BMP280;70043;51.982;-8.514;2024-03-08T00:19:52;98731.25;;;8.48
80680;BMP280;70043;51.982;-8.514;2024-03-08T00:22:19;98721.88;;;8.48
80680;BMP280;70043;51.982;-8.514;2024-03-08T00:24:47;98731.81;;;8.57
80680;BMP280;70043;51.982;-8.514;2024-03-08T00:27:16;98731.81;;;8.57
80680;BMP280;70043;51.982;-8.514;2024-03-08T00:29:47;98723.44;;;8.49
80680;BMP280;70043;51.982;-8.514;2024-03-08T00:32:15;98730.25;;;8.56
80680;BMP280;70043;51.982;-8.514;2024-03-08T00:34:42;98720.50;;;8.46
80680;BMP280;70043;51.982;-8.514;2024-03-08T00:37:09;98717.56;;;8.49
80680;BMP280;70043;51.982;-8.514;2024-03-08T00:39:37;98723.53;;;8.61
80680;BMP280;70043;51.982;-8.514;2024-03-08T00:42:04;98719.47;;;8.54
80680;BMP280;70043;51.982;-8.514;2024-03-08T00:44:31;98711.09;;;8.60
80680;BMP280;70043;51.982;-8.514;2024-03-08T00:47:00;98708.50;;;8.66
80680;BMP280;70043;51.982;-8.514;2024-03-08T00:49:28;98718.06;;;8.64
80680;BMP280;70043;51.982;-8.514;2024-03-08T00:51:56;98708.69;;;8.65
80680;BMP280;70043;51.982;-8.514;2024-03-08T00:54:23;98705.16;;;8.66
80680;BMP280;70043;51.982;-8.514;2024-03-08T00:56:50;98694.59;;;8.62
80680;BMP280;70043;51.982;-8.514;2024-03-08T00:59:17;98687.56;;;8.64
80680;BMP280;70043;51.982;-8.514;2024-03-08T01:01:44;98683.66;;;8.68
80680;BMP280;70043;51.982;-8.514;2024-03-08T01:04:13;98678.34;;;8.63
80680;BMP280;70043;51.982;-8.514;2024-03-08T01:06:40;98674.06;;;8.64
80680;BMP280;70043;51.982;-8.514;2024-03-08T01:09:08;98683.78;;;8.73
80680;BMP280;70043;51.982;-8.514;2024-03-08T01:11:35;98677.59;;;8.69
80680;BMP280;70043;51.982;-8.514;2024-03-08T01:14:02;98675.63;;;8.65
80680;BMP280;70043;51.982;-8.514;2024-03-08T01:16:29;98668.00;;;8.65
80680;BMP280;70043;51.982;-8.514;2024-03-08T01:18:58;98670.94;;;8.68
80680;BMP280;70043;51.982;-8.514;2024-03-08T01:21:27;98670.28;;;8.73
80680;BMP280;70043;51.982;-8.514;2024-03-08T01:23:54;98654.63;;;8.76
80680;BMP280;70043;51.982;-8.514;2024-03-08T01:26:21;98658.03;;;8.70
80680;BMP280;70043;51.982;-8.514;2024-03-08T01:28:49;98657.38;;;8.74
80680;BMP280;70043;51.982;-8.514;2024-03-08T01:31:16;98651.91;;;8.71
80680;BMP280;70043;51.982;-8.514;2024-03-08T01:33:43;98652.16;;;8.69
80680;BMP280;70043;51.982;-8.514;2024-03-08T01:36:11;98646.41;;;8.74
80680;BMP280;70043;51.982;-8.514;2024-03-08T01:38:42;98646.66;;;8.66
80680;BMP280;70043;51.982;-8.514;2024-03-08T01:41:09;98637.88;;;8.68
80680;BMP280;70043;51.982;-8.514;2024-03-08T01:43:39;98633.91;;;8.72
80680;BMP280;70043;51.982;-8.514;2024-03-08T01:46:06;98642.16;;;8.68
80680;BMP280;70043;51.982;-8.514;2024-03-08T01:48:35;98629.44;;;8.68
80680;BMP280;70043;51.982;-8.514;2024-03-08T01:51:04;98621.00;;;8.74
80680;BMP280;70043;51.982;-8.514;2024-03-08T01:53:31;98621.97;;;8.73
80680;BMP280;70043;51.982;-8.514;2024-03-08T01:56:00;98615.50;;;8.70
80680;BMP280;70043;51.982;-8.514;2024-03-08T01:58:29;98617.06;;;8.71
80680;BMP280;70043;51.982;-8.514;2024-03-08T02:03:33;98619.88;;;8.70
80680;BMP280;70043;51.982;-8.514;2024-03-08T02:06:00;98614.97;;;8.62
80680;BMP280;70043;51.982;-8.514;2024-03-08T02:08:28;98612.88;;;8.59
80680;BMP280;70043;51.982;-8.514;2024-03-08T02:10:55;98605.44;;;8.57
80680;BMP280;70043;51.982;-8.514;2024-03-08T02:13:24;98597.38;;;8.67
80680;BMP280;70043;51.982;-8.514;2024-03-08T02:15:52;98597.56;;;8.65
80680;BMP280;70043;51.982;-8.514;2024-03-08T02:18:19;98589.75;;;8.67
80680;BMP280;70043;51.982;-8.514;2024-03-08T02:20:49;98576.63;;;8.70
80680;BMP280;70043;51.982;-8.514;2024-03-08T02:23:16;98581.84;;;8.75
80680;BMP280;70043;51.982;-8.514;2024-03-08T02:25:44;98579.16;;;8.70
80680;BMP280;70043;51.982;-8.514;2024-03-08T02:28:12;98574.41;;;8.73
80680;BMP280;70043;51.982;-8.514;2024-03-08T02:30:40;98572.06;;;8.72
80680;BMP280;70043;51.982;-8.514;2024-03-08T02:33:07;98568.56;;;8.73
80680;BMP280;70043;51.982;-8.514;2024-03-08T02:35:35;98561.91;;;8.72
80680;BMP280;70043;51.982;-8.514;2024-03-08T02:38:04;98551.91;;;8.77
80680;BMP280;70043;51.982;-8.514;2024-03-08T02:40:32;98558.03;;;8.69
80680;BMP280;70043;51.982;-8.514;2024-03-08T02:42:59;98547.28;;;8.67
80680;BMP280;70043;51.982;-8.514;2024-03-08T02:45:26;98545.06;;;8.71
80680;BMP280;70043;51.982;-8.514;2024-03-08T02:47:53;98535.69;;;8.71
80680;BMP280;70043;51.982;-8.514;2024-03-08T02:50:21;98538.28;;;8.65
80680;BMP280;70043;51.982;-8.514;2024-03-08T02:52:48;98526.75;;;8.69
80680;BMP280;70043;51.982;-8.514;2024-03-08T02:55:17;98527.53;;;8.69
80680;BMP280;70043;51.982;-8.514;2024-03-08T02:57:45;98521.78;;;8.74
80680;BMP280;70043;51.982;-8.514;2024-03-08T03:00:13;98511.81;;;8.72
80680;BMP280;70043;51.982;-8.514;2024-03-08T03:02:41;98507.56;;;8.66
80680;BMP280;70043;51.982;-8.514;2024-03-08T03:05:09;98485.28;;;8.68
80680;BMP280;70043;51.982;-8.514;2024-03-08T03:07:37;98487.03;;;8.68
80680;BMP280;70043;51.982;-8.514;2024-03-08T03:10:05;98479.72;;;8.71
80680;BMP280;70043;51.982;-8.514;2024-03-08T03:12:34;98482.06;;;8.73
80680;BMP280;70043;51.982;-8.514;2024-03-08T03:15:01;98481.34;;;8.66
80680;BMP280;70043;51.982;-8.514;2024-03-08T03:17:29;98467.00;;;8.71
80680;BMP280;70043;51.982;-8.514;2024-03-08T03:19:56;98469.34;;;8.73
80680;BMP280;70043;51.982;-8.514;2024-03-08T03:22:23;98468.06;;;8.64
80680;BMP280;70043;51.982;-8.514;2024-03-08T03:24:51;98458.06;;;8.69
80680;BMP280;70043;51.982;-8.514;2024-03-08T03:27:18;98454.75;;;8.62
80680;BMP280;70043;51.982;-8.514;2024-03-08T03:29:47;98459.31;;;8.60
80680;BMP280;70043;51.982;-8.514;2024-03-08T03:32:15;98449.16;;;8.60
80680;BMP280;70043;51.982;-8.514;2024-03-08T03:34:44;98444.59;;;8.62
80680;BMP280;70043;51.982;-8.514;2024-03-08T03:37:11;98438.31;;;8.64
80680;BMP280;70043;51.982;-8.514;2024-03-08T03:39:39;98436.38;;;8.66
80680;BMP280;70043;51.982;-8.514;2024-03-08T03:42:14;98446.72;;;8.65
80680;BMP280;70043;51.982;-8.514;2024-03-08T03:44:43;98442.63;;;8.64
80680;BMP280;70043;51.982;-8.514;2024-03-08T03:47:12;98444.59;;;8.62
80680;BMP280;70043;51.982;-8.514;2024-03-08T03:49:40;98431.06;;;8.68
80680;BMP280;70043;51.982;-8.514;2024-03-08T03:52:08;98424.22;;;8.68
80680;BMP280;70043;51.982;-8.514;2024-03-08T03:54:35;98428.03;;;8.59
80680;BMP280;70043;51.982;-8.514;2024-03-08T03:57:03;98419.53;;;8.65
80680;BMP280;70043;51.982;-8.514;2024-03-08T03:59:30;98430.56;;;8.59
80680;BMP280;70043;51.982;-8.514;2024-03-08T04:01:57;98425.41;;;8.66
80680;BMP280;70043;51.982;-8.514;2024-03-08T04:04:26;98425.47;;;8.59
80680;BMP280;70043;51.982;-8.514;2024-03-08T04:06:54;98413.56;;;8.60
80680;BMP280;70043;51.982;-8.514;2024-03-08T04:09:21;98410.16;;;8.66
80680;BMP280;70043;51.982;-8.514;2024-03-08T04:11:49;98407.34;;;8.74
80680;BMP280;70043;51.982;-8.514;2024-03-08T04:14:18;98400.34;;;8.69
80680;BMP280;70043;51.982;-8.514;2024-03-08T04:16:45;98399.06;;;8.60
80680;BMP280;70043;51.982;-8.514;2024-03-08T04:19:14;98397.13;;;8.56
80680;BMP280;70043;51.982;-8.514;2024-03-08T04:21:42;98399.69;;;8.56
80680;BMP280;70043;51.982;-8.514;2024-03-08T04:24:09;98394.19;;;8.59
80680;BMP280;70043;51.982;-8.514;2024-03-08T04:26:36;98389.31;;;8.57
80680;BMP280;70043;51.982;-8.514;2024-03-08T04:29:04;98385.13;;;8.63
80680;BMP280;70043;51.982;-8.514;2024-03-08T04:31:31;98382.78;;;8.61
80680;BMP280;70043;51.982;-8.514;2024-03-08T04:33:58;98383.44;;;8.57
80680;BMP280;70043;51.982;-8.514;2024-03-08T04:36:25;98397.34;;;8.54
80680;BMP280;70043;51.982;-8.514;2024-03-08T04:38:53;98401.03;;;8.58
80680;BMP280;70043;51.982;-8.514;2024-03-08T04:41:20;98390.09;;;8.58
80680;BMP280;70043;51.982;-8.514;2024-03-08T04:43:48;98385.28;;;8.49
80680;BMP280;70043;51.982;-8.514;2024-03-08T04:46:16;98385.41;;;8.55
80680;BMP280;70043;51.982;-8.514;2024-03-08T04:48:43;98381.94;;;8.49
80680;BMP280;70043;51.982;-8.514;2024-03-08T04:51:11;98382.94;;;8.48
80680;BMP280;70043;51.982;-8.514;2024-03-08T04:53:39;98386.47;;;8.47
80680;BMP280;70043;51.982;-8.514;2024-03-08T04:56:08;98392.44;;;8.52
80680;BMP280;70043;51.982;-8.514;2024-03-08T04:58:36;98393.09;;;8.48
80680;BMP280;70043;51.982;-8.514;2024-03-08T05:01:03;98387.94;;;8.55
80680;BMP280;70043;51.982;-8.514;2024-03-08T05:03:30;98395.78;;;8.53
80680;BMP280;70043;51.982;-8.514;2024-03-08T05:05:57;98394.66;;;8.49
80680;BMP280;70043;51.982;-8.514;2024-03-08T05:08:24;98379.59;;;8.47
80680;BMP280;70043;51.982;-8.514;2024-03-08T05:10:51;98381.28;;;8.54
80680;BMP280;70043;51.982;-8.514;2024-03-08T05:13:20;98374.88;;;8.51
80680;BMP280;70043;51.982;-8.514;2024-03-08T05:15:48;98376.41;;;8.52
80680;BMP280;70043;51.982;-8.514;2024-03-08T05:18:16;98379.72;;;8.52
80680;BMP280;70043;51.982;-8.514;2024-03-08T05:20:43;98375.09;;;8.49
80680;BMP280;70043;51.982;-8.514;2024-03-08T05:23:10;98371.97;;;8.47
80680;BMP280;70043;51.982;-8.514;2024-03-08T05:25:37;98369.63;;;8.46
80680;BMP280;70043;51.982;-8.514;2024-03-08T05:28:05;98358.69;;;8.45
80680;BMP280;70043;51.982;-8.514;2024-03-08T05:30:33;98369.72;;;8.39
80680;BMP280;70043;51.982;-8.514;2024-03-08T05:33:01;98364.06;;;8.37
80680;BMP280;70043;51.982;-8.514;2024-03-08T05:35:29;98362.66;;;8.41
80680;BMP280;70043;51.982;-8.514;2024-03-08T05:37:58;98356.94;;;8.46
80680;BMP280;70043;51.982;-8.514;2024-03-08T05:40:24;98357.19;;;8.38
80680;BMP280;70043;51.982;-8.514;2024-03-08T05:42:51;98339.50;;;8.49
80680;BMP280;70043;51.982;-8.514;2024-03-08T05:45:19;98334.19;;;8.33
80680;BMP280;70043;51.982;-8.514;2024-03-08T05:47:47;98322.41;;;8.38
80680;BMP280;70043;51.982;-8.514;2024-03-08T05:50:15;98321.00;;;8.42
80680;BMP280;70043;51.982;-8.514;2024-03-08T05:52:42;98320.69;;;8.32
80680;BMP280;70043;51.982;-8.514;2024-03-08T05:55:09;98318.88;;;8.39
80680;BMP280;70043;51.982;-8.514;2024-03-08T05:57:39;98316.34;;;8.39
80680;BMP280;70043;51.982;-8.514;2024-03-08T06:00:08;98304.19;;;8.41
80680;BMP280;70043;51.982;-8.514;2024-03-08T06:02:37;98312.53;;;8.48
80680;BMP280;70043;51.982;-8.514;2024-03-08T06:05:10;98309.88;;;8.37
80680;BMP280;70043;51.982;-8.514;2024-03-08T06:07:37;98306.50;;;8.43
80680;BMP280;70043;51.982;-8.514;2024-03-08T06:10:07;98305.72;;;8.42
80680;BMP280;70043;51.982;-8.514;2024-03-08T06:12:35;98317.31;;;8.38
80680;BMP280;70043;51.982;-8.514;2024-03-08T06:15:06;98317.13;;;8.33
80680;BMP280;70043;51.982;-8.514;2024-03-08T06:17:34;98309.25;;;8.41
80680;BMP280;70043;51.982;-8.514;2024-03-08T06:20:01;98319.84;;;8.38
80680;BMP280;70043;51.982;-8.514;2024-03-08T06:22:30;98313.41;;;8.36
80680;BMP280;70043;51.982;-8.514;2024-03-08T06:24:57;98311.50;;;8.31
80680;BMP280;70043;51.982;-8.514;2024-03-08T06:27:24;98307.75;;;8.34
80680;BMP280;70043;51.982;-8.514;2024-03-08T06:29:51;98311.81;;;8.41
80680;BMP280;70043;51.982;-8.514;2024-03-08T06:32:19;98297.38;;;8.35
80680;BMP280;70043;51.982;-8.514;2024-03-08T06:34:46;98298.06;;;8.24
80680;BMP280;70043;51.982;-8.514;2024-03-08T06:37:13;98293.75;;;8.25
80680;BMP280;70043;51.982;-8.514;2024-03-08T06:39:42;98284.59;;;8.24
80680;BMP280;70043;51.982;-8.514;2024-03-08T06:42:10;98288.91;;;8.23
80680;BMP280;70043;51.982;-8.514;2024-03-08T06:44:38;98284.53;;;8.30
80680;BMP280;70043;51.982;-8.514;2024-03-08T06:47:14;98281.00;;;8.31
80680;BMP280;70043;51.982;-8.514;2024-03-08T06:49:41;98283.97;;;8.28
80680;BMP280;70043;51.982;-8.514;2024-03-08T06:52:09;98275.91;;;8.31
80680;BMP280;70043;51.982;-8.514;2024-03-08T06:54:36;98277.19;;;8.40
80680;BMP280;70043;51.982;-8.514;2024-03-08T06:57:04;98273.03;;;8.28
80680;BMP280;70043;51.982;-8.514;2024-03-08T06:59:32;98272.44;;;8.26
80680;BMP280;70043;51.982;-8.514;2024-03-08T07:02:01;98272.09;;;8.22
80680;BMP280;70043;51.982;-8.514;2024-03-08T07:04:29;98267.75;;;8.29
80680;BMP280;70043;51.982;-8.514;2024-03-08T07:06:59;98269.13;;;8.25
80680;BMP280;70043;51.982;-8.514;2024-03-08T07:09:28;98272.66;;;8.24
80680;BMP280;70043;51.982;-8.514;2024-03-08T07:11:55;98267.75;;;8.29
80680;BMP280;70043;51.982;-8.514;2024-03-08T07:14:24;98256.56;;;8.12
80680;BMP280;70043;51.982;-8.514;2024-03-08T07:16:51;98271.94;;;8.17
80680;BMP280;70043;51.982;-8.514;2024-03-08T07:19:18;98269.22;;;8.19
80680;BMP280;70043;51.982;-8.514;2024-03-08T07:21:47;98267.50;;;8.13
80680;BMP280;70043;51.982;-8.514;2024-03-08T07:24:14;98267.16;;;8.27
80680;BMP280;70043;51.982;-8.514;2024-03-08T07:26:58;98268.34;;;8.25
80680;BMP280;70043;51.982;-8.514;2024-03-08T07:29:27;98269.97;;;8.19
80680;BMP280;70043;51.982;-8.514;2024-03-08T07:31:54;98271.53;;;8.20
80680;BMP280;70043;51.982;-8.514;2024-03-08T07:34:33;98272.31;;;8.21
80680;BMP280;70043;51.982;-8.514;2024-03-08T07:37:00;98278.31;;;8.26
80680;BMP280;70043;51.982;-8.514;2024-03-08T07:39:28;98276.44;;;8.15
80680;BMP280;70043;51.982;-8.514;2024-03-08T07:41:54;98273.50;;;8.18
80680;BMP280;70043;51.982;-8.514;2024-03-08T07:44:21;98271.38;;;8.15
80680;BMP280;70043;51.982;-8.514;2024-03-08T07:46:50;98270.25;;;8.11
80680;BMP280;70043;51.982;-8.514;2024-03-08T07:49:19;98260.19;;;8.23
80680;BMP280;70043;51.982;-8.514;2024-03-08T07:51:47;98258.66;;;8.15
80680;BMP280;70043;51.982;-8.514;2024-03-08T07:54:14;98256.56;;;8.12
80680;BMP280;70043;51.982;-8.514;2024-03-08T07:56:41;98247.94;;;8.13
80680;BMP280;70043;51.982;-8.514;2024-03-08T07:59:09;98251.28;;;8.14
80680;BMP280;70043;51.982;-8.514;2024-03-08T08:01:37;98244.56;;;8.19
80680;BMP280;70043;51.982;-8.514;2024-03-08T08:04:06;98246.97;;;8.14
80680;BMP280;70043;51.982;-8.514;2024-03-08T08:06:37;98237.50;;;8.21
80680;BMP280;70043;51.982;-8.514;2024-03-08T08:09:07;98251.63;;;8.17
80680;BMP280;70043;51.982;-8.514;2024-03-08T08:11:39;98243.56;;;8.20
80680;BMP280;70043;51.982;-8.514;2024-03-08T08:14:09;98242.66;;;8.15
80680;BMP280;70043;51.982;-8.514;2024-03-08T08:16:36;98251.28;;;8.14
80680;BMP280;70043;51.982;-8.514;2024-03-08T08:19:03;98230.72;;;8.15
80680;BMP280;70043;51.982;-8.514;2024-03-08T08:21:35;98231.09;;;8.19
80680;BMP280;70043;51.982;-8.514;2024-03-08T08:24:02;98220.16;;;8.18
80680;BMP280;70043;51.982;-8.514;2024-03-08T08:26:30;98236.47;;;8.29
80680;BMP280;70043;51.982;-8.514;2024-03-08T08:28:58;98229.44;;;8.24
80680;BMP280;70043;51.982;-8.514;2024-03-08T08:31:25;98217.75;;;8.23
80680;BMP280;70043;51.982;-8.514;2024-03-08T08:33:52;98226.06;;;8.30
80680;BMP280;70043;51.982;-8.514;2024-03-08T08:36:24;98225.09;;;8.31
80680;BMP280;70043;51.982;-8.514;2024-03-08T08:38:52;98226.31;;;8.29
80680;BMP280;70043;51.982;-8.514;2024-03-08T08:41:19;98209.28;;;8.29
80680;BMP280;70043;51.982;-8.514;2024-03-08T08:43:47;98219.94;;;8.38
80680;BMP280;70043;51.982;-8.514;2024-03-08T08:46:17;98209.63;;;8.33
80680;BMP280;70043;51.982;-8.514;2024-03-08T08:48:44;98219.94;;;8.38
80680;BMP280;70043;51.982;-8.514;2024-03-08T08:51:12;98213.50;;;8.35
80680;BMP280;70043;51.982;-8.514;2024-03-08T08:53:39;98212.91;;;8.40
80680;BMP280;70043;51.982;-8.514;2024-03-08T08:56:09;98207.94;;;8.45
80680;BMP280;70043;51.982;-8.514;2024-03-08T08:58:38;98203.63;;;8.45
80680;BMP280;70043;51.982;-8.514;2024-03-08T09:01:06;98201.72;;;8.41
80680;BMP280;70043;51.982;-8.514;2024-03-08T09:03:35;98191.69;;;8.46
80680;BMP280;70043;51.982;-8.514;2024-03-08T09:06:03;98181.13;;;8.49
80680;BMP280;70043;51.982;-8.514;2024-03-08T09:08:30;98175.56;;;8.52
80680;BMP280;70043;51.982;-8.514;2024-03-08T09:11:00;98177.50;;;8.57
80680;BMP280;70043;51.982;-8.514;2024-03-08T09:13:28;98172.78;;;8.60
80680;BMP280;70043;51.982;-8.514;2024-03-08T09:15:56;98188.34;;;8.64
80680;BMP280;70043;51.982;-8.514;2024-03-08T09:18:23;98176.19;;;8.66
80680;BMP280;70043;51.982;-8.514;2024-03-08T09:20:50;98180.88;;;8.69
80680;BMP280;70043;51.982;-8.514;2024-03-08T09:23:19;98179.63;;;8.71
80680;BMP280;70043;51.982;-8.514;2024-03-08T09:25:46;98184.28;;;8.74
80680;BMP280;70043;51.982;-8.514;2024-03-08T09:28:13;98185.66;;;8.77
80680;BMP280;70043;51.982;-8.514;2024-03-08T09:30:43;98174.50;;;8.78
80680;BMP280;70043;51.982;-8.514;2024-03-08T09:33:10;98165.88;;;8.79
80680;BMP280;70043;51.982;-8.514;2024-03-08T09:35:37;98171.47;;;8.81
80680;BMP280;70043;51.982;-8.514;2024-03-08T09:38:04;98167.72;;;8.83
80680;BMP280;70043;51.982;-8.514;2024-03-08T09:40:31;98160.69;;;8.85
80680;BMP280;70043;51.982;-8.514;2024-03-08T09:42:59;98163.22;;;8.85
80680;BMP280;70043;51.982;-8.514;2024-03-08T09:45:26;98154.41;;;8.88
80680;BMP280;70043;51.982;-8.514;2024-03-08T09:47:57;98164.47;;;8.94
80680;BMP280;70043;51.982;-8.514;2024-03-08T09:50:24;98149.00;;;8.96
80680;BMP280;70043;51.982;-8.514;2024-03-08T09:52:53;98158.47;;;9.01
80680;BMP280;70043;51.982;-8.514;2024-03-08T09:55:22;98148.66;;;9.04
80680;BMP280;70043;51.982;-8.514;2024-03-08T09:57:51;98151.31;;;9.09
80680;BMP280;70043;51.982;-8.514;2024-03-08T10:00:34;98143.03;;;9.14
80680;BMP280;70043;51.982;-8.514;2024-03-08T10:03:03;98147.69;;;9.17
80680;BMP280;70043;51.982;-8.514;2024-03-08T10:05:31;98142.34;;;9.18
80680;BMP280;70043;51.982;-8.514;2024-03-08T10:07:59;98144.28;;;9.23
80680;BMP280;70043;51.982;-8.514;2024-03-08T10:10:26;98138.28;;;9.29
80680;BMP280;70043;51.982;-8.514;2024-03-08T10:12:55;98138.72;;;9.37
80680;BMP280;70043;51.982;-8.514;2024-03-08T10:15:22;98126.78;;;9.50
80680;BMP280;70043;51.982;-8.514;2024-03-08T10:17:49;98126.88;;;9.66
80680;BMP280;70043;51.982;-8.514;2024-03-08T10:20:19;98126.75;;;9.73
80680;BMP280;70043;51.982;-8.514;2024-03-08T10:22:48;98133.91;;;9.99
80680;BMP280;70043;51.982;-8.514;2024-03-08T10:25:15;98117.94;;;10.04
80680;BMP280;70043;51.982;-8.514;2024-03-08T10:27:43;98132.44;;;10.15
80680;BMP280;70043;51.982;-8.514;2024-03-08T10:30:12;98122.47;;;10.13
80680;BMP280;70043;51.982;-8.514;2024-03-08T10:32:41;98121.25;;;10.16
80680;BMP280;70043;51.982;-8.514;2024-03-08T10:35:08;98124.53;;;10.16
80680;BMP280;70043;51.982;-8.514;2024-03-08T10:37:44;98111.16;;;10.38
80680;BMP280;70043;51.982;-8.514;2024-03-08T10:40:16;98114.72;;;10.37
80680;BMP280;70043;51.982;-8.514;2024-03-08T10:42:51;98104.94;;;10.45
80680;BMP280;70043;51.982;-8.514;2024-03-08T10:45:30;98096.13;;;10.53
80680;BMP280;70043;51.982;-8.514;2024-03-08T10:48:06;98107.34;;;10.68
80680;BMP280;70043;51.982;-8.514;2024-03-08T10:50:38;98102.63;;;10.60
80680;BMP280;70043;51.982;-8.514;2024-03-08T10:53:09;98093.19;;;10.61
80680;BMP280;70043;51.982;-8.514;2024-03-08T10:55:40;98101.53;;;10.90
80680;BMP280;70043;51.982;-8.514;2024-03-08T10:58:07;98098.38;;;10.99
80680;BMP280;70043;51.982;-8.514;2024-03-08T11:00:35;98096.03;;;11.14
80680;BMP280;70043;51.982;-8.514;2024-03-08T11:03:02;98091.81;;;11.03
80680;BMP280;70043;51.982;-8.514;2024-03-08T11:05:37;98109.66;;;11.03
80680;BMP280;70043;51.982;-8.514;2024-03-08T11:08:16;98086.09;;;10.96
80680;BMP280;70043;51.982;-8.514;2024-03-08T11:10:49;98081.44;;;11.10
80680;BMP280;70043;51.982;-8.514;2024-03-08T11:13:34;98079.00;;;11.20
80680;BMP280;70043;51.982;-8.514;2024-03-08T11:16:01;98081.28;;;11.38
80680;BMP280;70043;51.982;-8.514;2024-03-08T11:18:32;98070.19;;;11.28
80680;BMP280;70043;51.982;-8.514;2024-03-08T11:21:02;98073.25;;;11.30
80680;BMP280;70043;51.982;-8.514;2024-03-08T11:23:34;98072.41;;;11.24
80680;BMP280;70043;51.982;-8.514;2024-03-08T11:26:02;98063.66;;;11.37
80680;BMP280;70043;51.982;-8.514;2024-03-08T11:28:33;98072.22;;;11.31
80680;BMP280;70043;51.982;-8.514;2024-03-08T11:31:22;98061.16;;;11.42
80680;BMP280;70043;51.982;-8.514;2024-03-08T11:33:50;98056.94;;;11.52
80680;BMP280;70043;51.982;-8.514;2024-03-08T11:36:21;98052.44;;;11.38
80680;BMP280;70043;51.982;-8.514;2024-03-08T11:38:52;98048.69;;;11.45
80680;BMP280;70043;51.982;-8.514;2024-03-08T11:41:22;98059.19;;;11.49
80680;BMP280;70043;51.982;-8.514;2024-03-08T11:44:00;98084.84;;;11.59
80680;BMP280;70043;51.982;-8.514;2024-03-08T11:46:30;98058.84;;;11.62
80680;BMP280;70043;51.982;-8.514;2024-03-08T11:49:00;98035.78;;;11.57
80680;BMP280;70043;51.982;-8.514;2024-03-08T11:51:27;98043.38;;;11.52
80680;BMP280;70043;51.982;-8.514;2024-03-08T11:53:57;98051.03;;;11.52
80680;BMP280;70043;51.982;-8.514;2024-03-08T11:56:24;98049.97;;;11.48
80680;BMP280;70043;51.982;-8.514;2024-03-08T11:58:53;98036.13;;;11.44
80680;BMP280;70043;51.982;-8.514;2024-03-08T12:01:23;98035.53;;;11.37
80680;BMP280;70043;51.982;-8.514;2024-03-08T12:03:52;98033.00;;;11.37
80680;BMP280;70043;51.982;-8.514;2024-03-08T12:06:20;98032.66;;;11.28
80680;BMP280;70043;51.982;-8.514;2024-03-08T12:08:47;98038.03;;;11.32
80680;BMP280;70043;51.982;-8.514;2024-03-08T12:11:16;98033.94;;;11.31
80680;BMP280;70043;51.982;-8.514;2024-03-08T12:13:48;98031.44;;;11.36
80680;BMP280;70043;51.982;-8.514;2024-03-08T12:16:17;98032.16;;;11.31
80680;BMP280;70043;51.982;-8.514;2024-03-08T12:18:45;98022.94;;;11.30
80680;BMP280;70043;51.982;-8.514;2024-03-08T12:21:12;98031.34;;;11.26
80680;BMP280;70043;51.982;-8.514;2024-03-08T12:23:44;98025.91;;;11.22
80680;BMP280;70043;51.982;-8.514;2024-03-08T12:26:12;98013.31;;;11.15
80680;BMP280;70043;51.982;-8.514;2024-03-08T12:28:42;98018.75;;;11.19
80680;BMP280;70043;51.982;-8.514;2024-03-08T12:31:12;98036.63;;;11.19
80680;BMP280;70043;51.982;-8.514;2024-03-08T12:33:49;98014.44;;;11.19
80680;BMP280;70043;51.982;-8.514;2024-03-08T12:36:17;98014.09;;;11.16
80680;BMP280;70043;51.982;-8.514;2024-03-08T12:38:45;98006.22;;;11.17
80680;BMP280;70043;51.982;-8.514;2024-03-08T12:41:13;97998.78;;;11.16
80680;BMP280;70043;51.982;-8.514;2024-03-08T12:43:42;97996.44;;;11.14
80680;BMP280;70043;51.982;-8.514;2024-03-08T12:46:14;97996.78;;;11.18
80680;BMP280;70043;51.982;-8.514;2024-03-08T12:48:41;98000.63;;;11.20
80680;BMP280;70043;51.982;-8.514;2024-03-08T12:51:12;98007.88;;;11.29
80680;BMP280;70043;51.982;-8.514;2024-03-08T12:53:39;97997.13;;;11.27
80680;BMP280;70043;51.982;-8.514;2024-03-08T12:56:09;97991.94;;;11.21
80680;BMP280;70043;51.982;-8.514;2024-03-08T12:58:36;97990.91;;;11.17
80680;BMP280;70043;51.982;-8.514;2024-03-08T13:01:05;97986.00;;;11.16
80680;BMP280;70043;51.982;-8.514;2024-03-08T13:03:33;97984.09;;;11.06
80680;BMP280;70043;51.982;-8.514;2024-03-08T13:06:01;97968.75;;;11.01
80680;BMP280;70043;51.982;-8.514;2024-03-08T13:08:29;97977.84;;;10.97
80680;BMP280;70043;51.982;-8.514;2024-03-08T13:10:56;97972.41;;;10.89
80680;BMP280;70043;51.982;-8.514;2024-03-08T13:13:25;97966.53;;;10.88
80680;BMP280;70043;51.982;-8.514;2024-03-08T13:15:52;97971.31;;;10.85
80680;BMP280;70043;51.982;-8.514;2024-03-08T13:18:20;97962.34;;;10.82
80680;BMP280;70043;51.982;-8.514;2024-03-08T13:20:47;97963.38;;;10.81
80680;BMP280;70043;51.982;-8.514;2024-03-08T13:23:17;97957.72;;;10.79
80680;BMP280;70043;51.982;-8.514;2024-03-08T13:25:44;97956.41;;;10.77
80680;BMP280;70043;51.982;-8.514;2024-03-08T13:28:13;97951.03;;;10.73
80680;BMP280;70043;51.982;-8.514;2024-03-08T13:30:41;97948.16;;;10.69
80680;BMP280;70043;51.982;-8.514;2024-03-08T13:33:09;97944.06;;;10.68
80680;BMP280;70043;51.982;-8.514;2024-03-08T13:35:38;97935.41;;;10.69
80680;BMP280;70043;51.982;-8.514;2024-03-08T13:38:06;97933.31;;;10.66
80680;BMP280;70043;51.982;-8.514;2024-03-08T13:40:34;97944.78;;;10.64
80680;BMP280;70043;51.982;-8.514;2024-03-08T13:43:02;97936.59;;;10.62
80680;BMP280;70043;51.982;-8.514;2024-03-08T13:45:29;97934.47;;;10.59
80680;BMP280;70043;51.982;-8.514;2024-03-08T13:47:56;97928.09;;;10.56
80680;BMP280;70043;51.982;-8.514;2024-03-08T13:50:24;97924.16;;;10.49
80680;BMP280;70043;51.982;-8.514;2024-03-08T13:52:54;97921.84;;;10.47
80680;BMP280;70043;51.982;-8.514;2024-03-08T13:55:21;97929.78;;;10.51
80680;BMP280;70043;51.982;-8.514;2024-03-08T13:57:48;97911.34;;;10.44
80680;BMP280;70043;51.982;-8.514;2024-03-08T14:00:17;97903.22;;;10.47
80680;BMP280;70043;51.982;-8.514;2024-03-08T14:02:48;97905.22;;;10.45
80680;BMP280;70043;51.982;-8.514;2024-03-08T14:05:15;97908.22;;;10.42
80680;BMP280;70043;51.982;-8.514;2024-03-08T14:07:44;97896.44;;;10.36
80680;BMP280;70043;51.982;-8.514;2024-03-08T14:10:16;97885.69;;;10.34
80680;BMP280;70043;51.982;-8.514;2024-03-08T14:12:45;97891.03;;;10.32
80680;BMP280;70043;51.982;-8.514;2024-03-08T14:15:14;97883.06;;;10.28